createdAt,value
2023-03-06T00:03:15.049Z,22.66
2023-03-06T00:07:15.233Z,22.65
2023-03-06T00:11:15.411Z,22.65
2023-03-06T00:15:15.577Z,22.63
2023-03-06T00:19:15.801Z,22.63
2023-03-06T00:23:16.007Z,22.62
2023-03-06T00:27:16.174Z,22.61
2023-03-06T00:31:16.365Z,22.60
2023-03-06T00:35:16.556Z,22.60
2023-03-06T00:39:18.720Z,22.59
2023-03-06T00:43:17.005Z,22.59
2023-03-06T00:47:17.004Z,22.58
2023-03-06T00:51:16.917Z,22.58
2023-03-06T00:55:17.250Z,22.57
2023-03-06T00:59:16.847Z,22.56
2023-03-06T01:03:16.787Z,22.55
2023-03-06T01:07:16.819Z,22.55
2023-03-06T01:11:16.729Z,22.55
2023-03-06T01:15:16.690Z,22.54
2023-03-06T01:19:16.670Z,22.53
2023-03-06T01:23:16.641Z,22.52
2023-03-06T01:27:16.623Z,22.52
2023-03-06T01:31:16.640Z,22.52
2023-03-06T01:35:16.528Z,22.51
2023-03-06T01:39:16.502Z,22.51
2023-03-06T01:43:16.474Z,22.50
2023-03-06T01:47:16.443Z,22.49
2023-03-06T01:51:16.408Z,22.49
2023-03-06T01:55:16.353Z,22.48
2023-03-06T01:59:16.309Z,22.48
2023-03-06T02:03:16.487Z,22.47
2023-03-06T02:07:16.441Z,22.47
2023-03-06T02:11:16.480Z,22.46
2023-03-06T02:15:16.358Z,22.45
2023-03-06T02:19:16.408Z,22.45
2023-03-06T02:23:16.297Z,22.44
2023-03-06T02:27:16.265Z,22.43
2023-03-06T02:31:16.238Z,22.44
2023-03-06T02:35:16.198Z,22.43
2023-03-06T02:39:16.145Z,22.43
2023-03-06T02:43:16.187Z,22.42
2023-03-06T02:47:16.370Z,22.41
2023-03-06T02:51:16.519Z,22.41
2023-03-06T02:55:16.748Z,22.41
2023-03-06T02:59:17.044Z,22.40
2023-03-06T03:03:17.128Z,22.39
2023-03-06T03:07:17.342Z,22.39
2023-03-06T03:11:17.304Z,22.38
2023-03-06T03:15:17.292Z,22.38
2023-03-06T03:19:17.250Z,22.37
2023-03-06T03:23:17.242Z,22.36
2023-03-06T03:27:17.168Z,22.37
2023-03-06T03:31:17.290Z,22.36
2023-03-06T03:35:17.083Z,22.36
2023-03-06T03:39:17.068Z,22.35
2023-03-06T03:43:17.006Z,22.35
2023-03-06T03:47:16.980Z,22.34
2023-03-06T03:51:16.946Z,22.34
2023-03-06T03:55:16.921Z,22.34
2023-03-06T03:59:16.850Z,22.33
2023-03-06T04:03:16.825Z,22.31
2023-03-06T04:07:16.781Z,22.32
2023-03-06T04:11:16.729Z,22.32
2023-03-06T04:15:16.733Z,22.30
2023-03-06T04:19:16.677Z,22.30
2023-03-06T04:23:16.711Z,22.30
2023-03-06T04:27:16.731Z,22.29
2023-03-06T04:31:16.795Z,22.30
2023-03-06T04:35:16.879Z,22.29
2023-03-06T04:39:16.970Z,22.28
2023-03-06T04:43:16.935Z,22.27
2023-03-06T04:47:19.029Z,22.27
2023-03-06T04:51:17.017Z,22.27
2023-03-06T04:55:17.063Z,22.26
2023-03-06T04:59:17.049Z,22.26
2023-03-06T05:03:17.028Z,22.25
2023-03-06T05:07:16.997Z,22.24
2023-03-06T05:11:17.026Z,22.24
2023-03-06T05:15:16.981Z,22.25
2023-03-06T05:19:17.004Z,22.23
2023-03-06T05:23:16.980Z,22.23
2023-03-06T05:27:17.050Z,22.23
2023-03-06T05:31:17.061Z,22.23
2023-03-06T05:35:16.890Z,22.21
2023-03-06T05:39:16.874Z,22.22
2023-03-06T05:43:16.853Z,22.21
2023-03-06T05:47:16.823Z,22.21
2023-03-06T05:51:16.844Z,22.20
2023-03-06T05:55:16.861Z,22.19
2023-03-06T05:59:16.810Z,22.20
2023-03-06T06:03:16.804Z,22.20
2023-03-06T06:07:16.753Z,22.19
2023-03-06T06:11:16.758Z,22.19
2023-03-06T06:15:16.743Z,22.18
2023-03-06T06:19:17.384Z,22.18
2023-03-06T06:23:16.674Z,22.18
2023-03-06T06:27:16.653Z,22.19
2023-03-06T06:31:16.676Z,22.19
2023-03-06T06:35:16.625Z,22.18
2023-03-06T06:39:16.668Z,22.20
2023-03-06T06:43:16.908Z,22.27
2023-03-06T06:47:25.665Z,22.37
2023-03-06T06:51:17.872Z,22.46
2023-03-06T06:55:16.782Z,22.55
2023-03-06T06:59:17.682Z,22.66
2023-03-06T07:03:17.394Z,22.79
2023-03-06T07:07:17.202Z,22.91
2023-03-06T07:11:17.404Z,23.00
2023-03-06T07:15:17.224Z,23.11
2023-03-06T07:19:17.408Z,23.18
2023-03-06T07:23:17.353Z,23.26
2023-03-06T07:27:17.305Z,23.35
2023-03-06T07:31:17.463Z,23.41
2023-03-06T07:35:20.387Z,23.49
2023-03-06T07:39:17.203Z,23.57
2023-03-06T07:43:19.569Z,23.62
2023-03-06T07:47:17.408Z,23.66
2023-03-06T07:51:17.453Z,23.66
2023-03-06T07:55:17.446Z,23.55
2023-03-06T07:59:17.076Z,23.47
2023-03-06T08:03:17.077Z,23.40
2023-03-06T08:07:16.950Z,23.35
2023-03-06T08:11:16.926Z,23.31
2023-03-06T08:15:16.874Z,23.28
2023-03-06T08:19:16.839Z,23.28
2023-03-06T08:23:16.953Z,23.27
2023-03-06T08:27:16.746Z,23.26
2023-03-06T08:31:16.798Z,23.24
2023-03-06T08:35:16.735Z,23.24
2023-03-06T08:39:16.977Z,23.24
2023-03-06T08:43:16.768Z,23.23
2023-03-06T08:47:16.943Z,23.32
2023-03-06T08:51:17.436Z,23.41
2023-03-06T08:55:17.458Z,23.47
2023-03-06T08:59:16.989Z,23.53
2023-03-06T09:03:16.926Z,23.58
2023-03-06T09:07:16.891Z,23.62
2023-03-06T09:11:16.884Z,23.66
2023-03-06T09:15:16.922Z,23.70
2023-03-06T09:19:16.783Z,23.73
2023-03-06T09:23:16.750Z,23.76
2023-03-06T09:27:16.714Z,23.81
2023-03-06T09:31:16.856Z,23.80
2023-03-06T09:35:16.647Z,23.82
2023-03-06T09:39:16.969Z,23.83
2023-03-06T09:43:16.987Z,23.89
2023-03-06T09:47:16.981Z,23.92
2023-03-06T09:51:16.695Z,23.90
2023-03-06T09:55:16.958Z,23.69
2023-03-06T09:59:17.484Z,23.55
2023-03-06T10:03:17.498Z,23.39
2023-03-06T10:07:17.471Z,23.22
2023-03-06T10:11:17.298Z,23.16
2023-03-06T10:15:17.323Z,23.18
2023-03-06T10:19:17.470Z,23.03
2023-03-06T10:23:17.498Z,22.95
2023-03-06T10:27:17.654Z,22.88
2023-03-06T10:31:18.582Z,22.79
2023-03-06T10:35:18.039Z,22.73
2023-03-06T10:39:18.493Z,22.69
2023-03-06T10:43:18.259Z,22.40
2023-03-06T10:47:18.596Z,21.72
2023-03-06T10:51:19.310Z,21.46
2023-03-06T10:55:18.990Z,21.46
2023-03-06T10:59:18.704Z,21.48
2023-03-06T11:03:19.071Z,21.60
2023-03-06T11:07:18.986Z,21.62
2023-03-06T11:11:35.037Z,21.63
2023-03-06T11:15:19.698Z,21.62
2023-03-06T11:19:18.635Z,21.62
2023-03-06T11:23:19.031Z,21.58
2023-03-06T11:27:19.006Z,21.59
2023-03-06T11:31:18.579Z,21.56
2023-03-06T11:35:18.511Z,21.56
2023-03-06T11:39:18.543Z,21.57
2023-03-06T11:43:18.539Z,21.82
2023-03-06T11:47:18.405Z,22.11
2023-03-06T11:51:18.513Z,22.41
2023-03-06T11:55:18.337Z,22.66
2023-03-06T11:59:18.294Z,22.85
2023-03-06T12:03:18.290Z,22.99
2023-03-06T12:07:18.234Z,23.11
2023-03-06T12:15:18.249Z,23.30
2023-03-06T12:19:18.471Z,23.40
2023-03-06T12:23:18.581Z,23.53
2023-03-06T12:27:19.048Z,23.58
2023-03-06T12:31:19.059Z,23.65
2023-03-06T12:35:19.113Z,23.64
2023-03-06T12:39:19.134Z,23.56
2023-03-06T12:43:19.375Z,23.50
2023-03-06T12:47:19.593Z,23.43
2023-03-06T12:51:19.272Z,23.41
2023-03-06T12:55:22.693Z,23.40
2023-03-06T12:59:19.227Z,23.39
2023-03-06T13:03:19.181Z,23.41
2023-03-06T13:07:19.136Z,23.41
2023-03-06T13:11:19.266Z,23.40
2023-03-06T13:15:19.228Z,23.38
2023-03-06T13:19:19.203Z,23.41
2023-03-06T13:23:19.598Z,23.38
2023-03-06T13:27:19.108Z,23.39
2023-03-06T13:31:27.220Z,23.35
2023-03-06T13:35:20.106Z,23.33
2023-03-06T13:39:19.021Z,23.32
2023-03-06T13:43:19.234Z,23.31
2023-03-06T13:47:19.414Z,23.28
2023-03-06T13:51:19.550Z,23.28
2023-03-06T13:55:19.638Z,23.27
2023-03-06T13:59:19.657Z,23.24
2023-03-06T14:03:19.655Z,23.19
2023-03-06T14:07:19.709Z,22.39
2023-03-06T14:11:19.822Z,21.86
2023-03-06T14:15:19.788Z,21.72
2023-03-06T14:19:19.776Z,21.96
2023-03-06T14:23:19.684Z,22.21
2023-03-06T14:27:19.703Z,22.39
2023-03-06T14:31:19.668Z,22.53
2023-03-06T14:35:19.677Z,22.63
2023-03-06T14:39:19.579Z,22.69
2023-03-06T14:43:19.526Z,22.74
2023-03-06T14:47:19.496Z,22.78
2023-03-06T14:51:19.470Z,22.80
2023-03-06T14:55:19.409Z,22.82
2023-03-06T14:59:19.386Z,22.84
2023-03-06T15:03:19.613Z,22.85
2023-03-06T15:07:19.319Z,22.86
2023-03-06T15:11:19.254Z,22.85
2023-03-06T15:15:19.668Z,22.86
2023-03-06T15:19:19.316Z,22.86
2023-03-06T15:23:19.720Z,22.85
2023-03-06T15:27:19.536Z,22.86
2023-03-06T15:31:19.670Z,22.85
2023-03-06T15:35:19.775Z,22.85
2023-03-06T15:39:19.823Z,22.84
2023-03-06T15:43:19.959Z,22.84
2023-03-06T15:47:20.041Z,22.85
2023-03-06T15:51:20.202Z,22.86
2023-03-06T15:55:20.262Z,22.85
2023-03-06T15:59:20.363Z,22.86
2023-03-06T16:03:20.454Z,22.86
2023-03-06T16:07:20.566Z,22.85
2023-03-06T16:11:20.633Z,22.85
2023-03-06T16:15:20.723Z,22.84
2023-03-06T16:19:27.954Z,22.84
2023-03-06T16:23:21.835Z,22.83
2023-03-06T16:27:21.173Z,22.83
2023-03-06T16:31:20.745Z,22.83
2023-03-06T16:35:20.725Z,22.82
2023-03-06T16:39:20.765Z,22.81
2023-03-06T16:43:20.951Z,22.81
2023-03-06T16:47:20.985Z,22.80
2023-03-06T16:51:21.089Z,22.79
2023-03-06T16:55:21.246Z,22.79
2023-03-06T16:59:21.398Z,22.79
2023-03-06T17:03:21.696Z,22.78
2023-03-06T17:07:21.715Z,22.77
2023-03-06T17:11:21.832Z,22.76
2023-03-06T17:15:21.957Z,22.76
2023-03-06T17:19:22.124Z,22.75
2023-03-06T17:23:22.229Z,22.76
2023-03-06T17:27:22.401Z,22.74
2023-03-06T17:31:22.584Z,22.74
2023-03-06T17:35:22.749Z,22.74
2023-03-06T17:39:22.855Z,22.73
2023-03-06T17:43:22.990Z,22.72
2023-03-06T17:47:23.172Z,22.72
2023-03-06T17:51:23.321Z,22.71
2023-03-06T17:55:23.507Z,22.71
2023-03-06T17:59:23.661Z,22.70
2023-03-06T18:03:23.838Z,22.69
2023-03-06T18:07:24.047Z,22.69
2023-03-06T18:11:24.242Z,22.68
2023-03-06T18:15:24.425Z,22.67
2023-03-06T18:19:24.575Z,22.66
2023-03-06T18:23:24.795Z,22.65
2023-03-06T18:27:25.002Z,22.63
2023-03-06T18:31:25.235Z,22.63
2023-03-06T18:35:25.438Z,22.62
2023-03-06T18:39:25.579Z,22.61
2023-03-06T18:43:25.762Z,22.61
2023-03-06T18:47:25.992Z,22.60
2023-03-06T18:51:26.225Z,22.58
2023-03-06T18:55:26.456Z,22.57
2023-03-06T18:59:26.643Z,22.57
2023-03-06T19:03:26.618Z,22.56
2023-03-06T19:07:26.683Z,22.56
2023-03-06T19:11:26.537Z,22.55
2023-03-06T19:15:26.512Z,22.55
2023-03-06T19:19:26.488Z,22.54
2023-03-06T19:23:26.436Z,22.53
2023-03-06T19:27:26.406Z,22.53
2023-03-06T19:31:26.634Z,22.52
2023-03-06T19:35:26.390Z,22.51
2023-03-06T19:39:26.320Z,22.50
2023-03-06T19:43:26.237Z,22.49
2023-03-06T19:47:26.233Z,22.48
2023-03-06T19:51:26.197Z,22.48
2023-03-06T19:55:26.141Z,22.48
2023-03-06T19:59:26.127Z,22.48
2023-03-06T20:03:26.068Z,22.47
2023-03-06T20:07:26.053Z,22.46
2023-03-06T20:11:26.091Z,22.46
2023-03-06T20:15:26.071Z,22.45
2023-03-06T20:19:26.073Z,22.45
2023-03-06T20:23:26.055Z,22.44
2023-03-06T20:27:25.973Z,22.44
2023-03-06T20:31:26.052Z,22.43
2023-03-06T20:35:25.893Z,22.42
2023-03-06T20:39:25.860Z,22.42
2023-03-06T20:43:25.857Z,22.42
2023-03-06T20:47:25.823Z,22.41
2023-03-06T20:51:25.775Z,22.40
2023-03-06T20:55:25.725Z,22.40
2023-03-06T20:59:25.917Z,22.39
2023-03-06T21:03:25.858Z,22.39
2023-03-06T21:07:25.852Z,22.39
2023-03-06T21:11:25.786Z,22.38
2023-03-06T21:15:25.733Z,22.37
2023-03-06T21:19:25.747Z,22.37
2023-03-06T21:23:25.701Z,22.36
2023-03-06T21:27:25.646Z,22.36
2023-03-06T21:31:25.665Z,22.35
2023-03-06T21:35:25.655Z,22.35
2023-03-06T21:39:25.571Z,22.34
2023-03-06T21:43:25.524Z,22.33
2023-03-06T21:47:25.507Z,22.34
2023-03-06T21:51:25.422Z,22.33
2023-03-06T21:55:25.417Z,22.33
2023-03-06T21:59:25.501Z,22.32
2023-03-06T22:03:25.519Z,22.32
2023-03-06T22:07:25.511Z,22.30
2023-03-06T22:11:25.529Z,22.30
2023-03-06T22:15:25.573Z,22.30
2023-03-06T22:19:25.617Z,22.29
2023-03-06T22:23:25.642Z,22.28
2023-03-06T22:27:25.691Z,22.28
2023-03-06T22:31:25.768Z,22.28
2023-03-06T22:35:25.719Z,22.28
2023-03-06T22:39:25.669Z,22.27
2023-03-06T22:43:25.635Z,22.27
2023-03-06T22:47:25.650Z,22.26
2023-03-06T22:51:25.611Z,22.26
2023-03-06T22:55:25.596Z,22.26
2023-03-06T22:59:25.571Z,22.25
2023-03-06T23:03:25.534Z,22.25
2023-03-06T23:07:25.512Z,22.24
2023-03-06T23:11:25.501Z,22.24
2023-03-06T23:15:25.493Z,22.23
2023-03-06T23:19:25.494Z,22.23
2023-03-06T23:23:25.465Z,22.22
2023-03-06T23:27:25.496Z,22.22
2023-03-06T23:31:25.474Z,22.21
2023-03-06T23:35:25.482Z,22.21
2023-03-06T23:39:25.425Z,22.21
2023-03-06T23:43:25.404Z,22.20
2023-03-06T23:47:25.393Z,22.19
2023-03-06T23:51:25.336Z,22.19
2023-03-06T23:55:25.334Z,22.19
2023-03-06T23:59:25.334Z,22.18
